Pretty Lady — 9HVY9 — position and weather

sailwx.info

Track history (hours):
 
Tides and Currents Weather Stations Pressure Air Temp Water Temp Dewpoint Dewpoint Depression Visibility Wind Speed Wind Dir Waves Ship Positions

Pretty Lady

Last reported at 2017-Oct-16 09:03 UTC. Time now 2017-Oct-18 07:55 UTC.
Position N 32°56' E 034°44'.

Length 189 m; draft 10.2 m.

Type: Cargo ship. MMSI: 249617000.

Date/timePositionNaut miles runAvg speedWind from/ knotsBaromVisibWave heightAir tempDewpointWater temp
2017-Oct-16 09:03N 32°56' E 034°44'112.6
2017-Oct-16 08:59N 32°56' E 034°45'612.3
2017-Oct-16 08:30N 32°55' E 034°52'611.8
2017-Oct-16 07:59N 32°52' E 034°58'  
2017-Oct-13 09:04N 32°52' E 034°58'3 7.6
2017-Oct-13 08:39N 32°53' E 034°55'2 8.2
2017-Oct-13 08:23N 32°53' E 034°52'510.7
2017-Oct-13 07:57N 32°54' E 034°46'612.7
2017-Oct-13 07:30N 32°55' E 034°40'  
2017-Oct-10 03:28N 36°18' E 014°50'713.8
2017-Oct-10 02:59N 36°21' E 014°43'713.8
2017-Oct-10 02:30N 36°25' E 014°36'713.9
2017-Oct-10 02:00N 36°29' E 014°29'713.9
2017-Oct-10 01:30N 36°32' E 014°21'713.8
2017-Oct-10 01:00N 36°35' E 014°14'713.9
2017-Oct-10 00:30N 36°39' E 014°06'714.0
2017-Oct-10 00:00N 36°43' E 013°59'714.0
2017-Oct-09 23:30N 36°46' E 013°51'714.0
2017-Oct-09 23:00N 36°49' E 013°43'713.6
2017-Oct-09 22:30N 36°52' E 013°36'  
2017-Oct-07 00:37N 36°00' W 005°10'216.9
2017-Oct-07 00:30N 36°00' W 005°12'816.1
2017-Oct-07 00:00N 35°58' W 005°22'4712.4
2017-Oct-06 20:15N 35°37' W 006°13'413.4
2017-Oct-06 19:56N 35°34' W 006°17'613.4
2017-Oct-06 19:29N 35°30' W 006°22'713.4
2017-Oct-06 18:59N 35°25' W 006°28'712.9
2017-Oct-06 18:28N 35°21' W 006°34'712.9
2017-Oct-06 17:57N 35°18' W 006°42'613.0
2017-Oct-06 17:30N 35°14' W 006°47'812.9
2017-Oct-06 16:53N 35°08' W 006°52'613.2
2017-Oct-06 16:28N 35°04' W 006°57'713.5
2017-Oct-06 15:55N 34°58' W 007°03'713.5
2017-Oct-06 15:24N 34°53' W 007°09'513.1
2017-Oct-06 14:59N 34°50' W 007°14'713.4
2017-Oct-06 14:27N 34°44' W 007°20'713.5
2017-Oct-06 13:54N 34°39' W 007°26'613.7
2017-Oct-06 13:27N 34°35' W 007°32'713.2
2017-Oct-06 12:57N 34°30' W 007°37'813.1
2017-Oct-06 12:22N 34°25' W 007°44'1313.3
2017-Oct-06 11:26N 34°16' W 007°54'613.2
2017-Oct-06 10:59N 34°12' W 007°60'613.1
2017-Oct-06 10:30N 34°07' W 008°05'  
Track history (hours):
 
Tides and Currents Weather Stations Pressure Air Temp Water Temp Dewpoint Dewpoint Depression Visibility Wind Speed Wind Dir Waves Ship Positions

Pretty Lady

Last reported at 2017-Oct-16 09:03 UTC. Time now 2017-Oct-18 07:55 UTC.
Position N 32°56' E 034°44'.

Length 189 m; draft 10.2 m.

Type: Cargo ship. MMSI: 249617000.

Date/timePositionNaut miles runAvg speedWind from/ knotsBaromVisibWave heightAir tempDewpointWater temp
2017-Oct-16 09:03N 32°56' E 034°44'112.6
2017-Oct-16 08:59N 32°56' E 034°45'612.3
2017-Oct-16 08:30N 32°55' E 034°52'611.8
2017-Oct-16 07:59N 32°52' E 034°58'  
2017-Oct-13 09:04N 32°52' E 034°58'3 7.6
2017-Oct-13 08:39N 32°53' E 034°55'2 8.2
2017-Oct-13 08:23N 32°53' E 034°52'510.7
2017-Oct-13 07:57N 32°54' E 034°46'612.7
2017-Oct-13 07:30N 32°55' E 034°40'  
2017-Oct-10 03:28N 36°18' E 014°50'713.8
2017-Oct-10 02:59N 36°21' E 014°43'713.8
2017-Oct-10 02:30N 36°25' E 014°36'713.9
2017-Oct-10 02:00N 36°29' E 014°29'713.9
2017-Oct-10 01:30N 36°32' E 014°21'713.8
2017-Oct-10 01:00N 36°35' E 014°14'713.9
2017-Oct-10 00:30N 36°39' E 014°06'714.0
2017-Oct-10 00:00N 36°43' E 013°59'714.0
2017-Oct-09 23:30N 36°46' E 013°51'714.0
2017-Oct-09 23:00N 36°49' E 013°43'713.6
2017-Oct-09 22:30N 36°52' E 013°36'  
2017-Oct-07 00:37N 36°00' W 005°10'216.9
2017-Oct-07 00:30N 36°00' W 005°12'816.1
2017-Oct-07 00:00N 35°58' W 005°22'4712.4
2017-Oct-06 20:15N 35°37' W 006°13'413.4
2017-Oct-06 19:56N 35°34' W 006°17'613.4
2017-Oct-06 19:29N 35°30' W 006°22'713.4
2017-Oct-06 18:59N 35°25' W 006°28'712.9
2017-Oct-06 18:28N 35°21' W 006°34'712.9
2017-Oct-06 17:57N 35°18' W 006°42'613.0
2017-Oct-06 17:30N 35°14' W 006°47'812.9
2017-Oct-06 16:53N 35°08' W 006°52'613.2
2017-Oct-06 16:28N 35°04' W 006°57'713.5
2017-Oct-06 15:55N 34°58' W 007°03'713.5
2017-Oct-06 15:24N 34°53' W 007°09'513.1
2017-Oct-06 14:59N 34°50' W 007°14'713.4
2017-Oct-06 14:27N 34°44' W 007°20'713.5
2017-Oct-06 13:54N 34°39' W 007°26'613.7
2017-Oct-06 13:27N 34°35' W 007°32'713.2
2017-Oct-06 12:57N 34°30' W 007°37'813.1
2017-Oct-06 12:22N 34°25' W 007°44'1313.3
2017-Oct-06 11:26N 34°16' W 007°54'613.2
2017-Oct-06 10:59N 34°12' W 007°60'613.1
2017-Oct-06 10:30N 34°07' W 008°05'  

Dump ship's entire track history